sensor_id;sensor_type;location;lat;lon;timestamp;temperature;humidity
46340;DHT22;47273;49.274;8.708;2022-07-10T04:00:41;16.10;99.90
46340;DHT22;47273;49.274;8.708;2022-07-10T04:03:08;16.00;99.90
46340;DHT22;47273;49.274;8.708;2022-07-10T04:05:34;16.00;99.90
46340;DHT22;47273;49.274;8.708;2022-07-10T04:08:01;16.00;99.90
46340;DHT22;47273;49.274;8.708;2022-07-10T04:10:29;16.00;99.90
46340;DHT22;47273;49.274;8.708;2022-07-10T04:12:56;16.10;99.90
46340;DHT22;47273;49.274;8.708;2022-07-10T04:15:24;16.20;99.90
46340;DHT22;47273;49.274;8.708;2022-07-10T04:17:50;16.20;99.90
46340;DHT22;47273;49.274;8.708;2022-07-10T04:20:16;16.30;99.90
46340;DHT22;47273;49.274;8.708;2022-07-10T04:22:42;16.30;99.90
46340;DHT22;47273;49.274;8.708;2022-07-10T04:25:09;16.30;99.90
46340;DHT22;47273;49.274;8.708;2022-07-10T04:27:34;16.20;99.90
46340;DHT22;47273;49.274;8.708;2022-07-10T04:30:01;16.10;99.90
46340;DHT22;47273;49.274;8.708;2022-07-10T04:32:27;16.10;99.90
46340;DHT22;47273;49.274;8.708;2022-07-10T04:34:54;16.20;99.90
46340;DHT22;47273;49.274;8.708;2022-07-10T04:37:20;16.20;99.90
46340;DHT22;47273;49.274;8.708;2022-07-10T04:39:46;16.20;99.90
46340;DHT22;47273;49.274;8.708;2022-07-10T04:42:11;16.20;99.90
46340;DHT22;47273;49.274;8.708;2022-07-10T04:44:37;16.20;99.90
46340;DHT22;47273;49.274;8.708;2022-07-10T04:47:03;16.20;99.90
46340;DHT22;47273;49.274;8.708;2022-07-10T04:49:29;16.20;99.90
46340;DHT22;47273;49.274;8.708;2022-07-10T04:51:55;16.20;99.90
46340;DHT22;47273;49.274;8.708;2022-07-10T04:54:22;16.10;99.90
46340;DHT22;47273;49.274;8.708;2022-07-10T04:56:48;16.20;99.90
46340;DHT22;47273;49.274;8.708;2022-07-10T04:59:13;16.20;99.90
46340;DHT22;47273;49.274;8.708;2022-07-10T05:01:39;16.20;99.90
46340;DHT22;47273;49.274;8.708;2022-07-10T05:04:05;16.30;99.90
46340;DHT22;47273;49.274;8.708;2022-07-10T05:06:31;16.30;99.90
46340;DHT22;47273;49.274;8.708;2022-07-10T05:08:57;16.40;99.90
46340;DHT22;47273;49.274;8.708;2022-07-10T05:11:23;16.30;99.90
46340;DHT22;47273;49.274;8.708;2022-07-10T05:13:49;16.30;99.90
46340;DHT22;47273;49.274;8.708;2022-07-10T05:16:15;16.30;99.90
46340;DHT22;47273;49.274;8.708;2022-07-10T05:18:41;16.40;99.90
46340;DHT22;47273;49.274;8.708;2022-07-10T05:21:07;16.40;99.90
46340;DHT22;47273;49.274;8.708;2022-07-10T05:23:33;16.40;99.90
46340;DHT22;47273;49.274;8.708;2022-07-10T05:25:59;16.40;99.80
46340;DHT22;47273;49.274;8.708;2022-07-10T05:28:24;16.40;99.40
46340;DHT22;47273;49.274;8.708;2022-07-10T05:30:50;16.40;99.50
46340;DHT22;47273;49.274;8.708;2022-07-10T05:33:16;16.50;99.20
46340;DHT22;47273;49.274;8.708;2022-07-10T05:35:42;16.50;99.00
46340;DHT22;47273;49.274;8.708;2022-07-10T05:38:08;16.60;98.30
46340;DHT22;47273;49.274;8.708;2022-07-10T05:40:34;16.50;97.50
46340;DHT22;47273;49.274;8.708;2022-07-10T05:43:00;16.50;98.10
46340;DHT22;47273;49.274;8.708;2022-07-10T05:45:25;16.50;98.20
46340;DHT22;47273;49.274;8.708;2022-07-10T05:47:51;16.50;97.80
46340;DHT22;47273;49.274;8.708;2022-07-10T05:50:17;16.60;97.80
46340;DHT22;47273;49.274;8.708;2022-07-10T05:52:43;16.60;97.80
46340;DHT22;47273;49.274;8.708;2022-07-10T05:55:09;16.60;97.20
46340;DHT22;47273;49.274;8.708;2022-07-10T05:57:35;16.70;96.40
46340;DHT22;47273;49.274;8.708;2022-07-10T06:00:02;16.70;96.20
46340;DHT22;47273;49.274;8.708;2022-07-10T06:02:29;16.70;96.20
46340;DHT22;47273;49.274;8.708;2022-07-10T06:04:54;16.70;96.20
46340;DHT22;47273;49.274;8.708;2022-07-10T06:07:20;16.60;95.90
46340;DHT22;47273;49.274;8.708;2022-07-10T06:09:46;16.60;95.10
46340;DHT22;47273;49.274;8.708;2022-07-10T06:12:11;16.60;95.30
46340;DHT22;47273;49.274;8.708;2022-07-10T06:14:37;16.70;95.10
46340;DHT22;47273;49.274;8.708;2022-07-10T06:17:03;16.70;94.80
46340;DHT22;47273;49.274;8.708;2022-07-10T06:19:29;16.80;94.60
46340;DHT22;47273;49.274;8.708;2022-07-10T06:21:54;16.90;94.50
46340;DHT22;47273;49.274;8.708;2022-07-10T06:24:38;16.90;94.00
46340;DHT22;47273;49.274;8.708;2022-07-10T06:27:04;17.00;93.70
46340;DHT22;47273;49.274;8.708;2022-07-10T06:29:31;17.00;93.50
46340;DHT22;47273;49.274;8.708;2022-07-10T06:31:56;17.00;93.40
46340;DHT22;47273;49.274;8.708;2022-07-10T06:34:24;17.00;93.20
46340;DHT22;47273;49.274;8.708;2022-07-10T06:36:50;17.00;92.80
46340;DHT22;47273;49.274;8.708;2022-07-10T06:39:16;16.90;92.40
46340;DHT22;47273;49.274;8.708;2022-07-10T06:41:41;16.90;92.90
46340;DHT22;47273;49.274;8.708;2022-07-10T06:44:07;16.90;92.90
46340;DHT22;47273;49.274;8.708;2022-07-10T06:46:33;17.00;93.10
46340;DHT22;47273;49.274;8.708;2022-07-10T06:48:59;17.10;92.40
46340;DHT22;47273;49.274;8.708;2022-07-10T06:51:26;17.10;92.30
46340;DHT22;47273;49.274;8.708;2022-07-10T06:53:52;17.20;91.40
46340;DHT22;47273;49.274;8.708;2022-07-10T06:56:18;17.20;91.70
46340;DHT22;47273;49.274;8.708;2022-07-10T06:58:44;17.30;91.70
46340;DHT22;47273;49.274;8.708;2022-07-10T07:01:10;17.40;91.30
46340;DHT22;47273;49.274;8.708;2022-07-10T07:03:35;17.40;90.70
46340;DHT22;47273;49.274;8.708;2022-07-10T07:06:01;17.50;90.70
46340;DHT22;47273;49.274;8.708;2022-07-10T07:08:29;17.60;90.60
46340;DHT22;47273;49.274;8.708;2022-07-10T07:10:55;17.50;88.70
46340;DHT22;47273;49.274;8.708;2022-07-10T07:13:20;17.60;89.90
46340;DHT22;47273;49.274;8.708;2022-07-10T07:15:46;17.60;90.10
46340;DHT22;47273;49.274;8.708;2022-07-10T07:18:20;17.70;88.10
46340;DHT22;47273;49.274;8.708;2022-07-10T07:20:47;17.80;88.50
46340;DHT22;47273;49.274;8.708;2022-07-10T07:23:31;18.00;89.00
46340;DHT22;47273;49.274;8.708;2022-07-10T07:25:57;18.00;87.00
46340;DHT22;47273;49.274;8.708;2022-07-10T07:28:23;18.00;85.40
46340;DHT22;47273;49.274;8.708;2022-07-10T07:30:49;17.90;87.20
46340;DHT22;47273;49.274;8.708;2022-07-10T07:33:15;17.80;85.60
46340;DHT22;47273;49.274;8.708;2022-07-10T07:35:41;17.70;85.70
46340;DHT22;47273;49.274;8.708;2022-07-10T07:38:08;17.70;86.00
46340;DHT22;47273;49.274;8.708;2022-07-10T07:40:34;17.80;86.00
46340;DHT22;47273;49.274;8.708;2022-07-10T07:42:59;17.90;86.20
46340;DHT22;47273;49.274;8.708;2022-07-10T07:45:26;18.00;85.50
46340;DHT22;47273;49.274;8.708;2022-07-10T07:47:54;18.10;85.00
46340;DHT22;47273;49.274;8.708;2022-07-10T07:50:30;18.20;83.10
46340;DHT22;47273;49.274;8.708;2022-07-10T07:52:59;18.30;84.00
46340;DHT22;47273;49.274;8.708;2022-07-10T07:55:27;18.40;82.40
46340;DHT22;47273;49.274;8.708;2022-07-10T07:57:54;18.30;80.50
46340;DHT22;47273;49.274;8.708;2022-07-10T08:00:21;18.20;80.60
46340;DHT22;47273;49.274;8.708;2022-07-10T08:02:49;18.10;80.90
46340;DHT22;47273;49.274;8.708;2022-07-10T08:05:15;18.10;80.70
46340;DHT22;47273;49.274;8.708;2022-07-10T08:07:43;18.20;80.10
46340;DHT22;47273;49.274;8.708;2022-07-10T08:10:11;18.30;77.70
46340;DHT22;47273;49.274;8.708;2022-07-10T08:12:38;18.50;78.30
46340;DHT22;47273;49.274;8.708;2022-07-10T08:15:08;18.70;76.80
46340;DHT22;47273;49.274;8.708;2022-07-10T08:17:34;18.90;74.40
46340;DHT22;47273;49.274;8.708;2022-07-10T08:20:00;19.10;76.70
46340;DHT22;47273;49.274;8.708;2022-07-10T08:22:26;19.30;75.30
46340;DHT22;47273;49.274;8.708;2022-07-10T08:24:52;19.40;75.70
46340;DHT22;47273;49.274;8.708;2022-07-10T08:27:17;19.50;74.10
46340;DHT22;47273;49.274;8.708;2022-07-10T08:29:43;19.60;75.00
46340;DHT22;47273;49.274;8.708;2022-07-10T08:32:11;19.70;74.20
46340;DHT22;47273;49.274;8.708;2022-07-10T08:34:37;19.70;73.30
46340;DHT22;47273;49.274;8.708;2022-07-10T08:37:03;19.80;72.80
46340;DHT22;47273;49.274;8.708;2022-07-10T08:39:29;19.80;72.40
46340;DHT22;47273;49.274;8.708;2022-07-10T08:41:54;19.90;72.80
46340;DHT22;47273;49.274;8.708;2022-07-10T08:44:20;20.00;72.90
46340;DHT22;47273;49.274;8.708;2022-07-10T08:46:47;20.00;71.10
46340;DHT22;47273;49.274;8.708;2022-07-10T08:49:12;20.00;70.60
46340;DHT22;47273;49.274;8.708;2022-07-10T08:54:13;19.90;68.20
46340;DHT22;47273;49.274;8.708;2022-07-10T08:56:40;19.80;67.60
46340;DHT22;47273;49.274;8.708;2022-07-10T08:59:07;19.80;68.90
46340;DHT22;47273;49.274;8.708;2022-07-10T09:01:33;19.90;68.30
46340;DHT22;47273;49.274;8.708;2022-07-10T09:04:00;19.90;68.40
46340;DHT22;47273;49.274;8.708;2022-07-10T09:06:27;19.90;67.00
46340;DHT22;47273;49.274;8.708;2022-07-10T09:09:03;19.90;65.50
46340;DHT22;47273;49.274;8.708;2022-07-10T09:11:29;19.90;64.80
46340;DHT22;47273;49.274;8.708;2022-07-10T09:14:03;20.00;67.10
46340;DHT22;47273;49.274;8.708;2022-07-10T09:16:33;19.90;66.30
46340;DHT22;47273;49.274;8.708;2022-07-10T09:19:26;19.60;65.80
46340;DHT22;47273;49.274;8.708;2022-07-10T09:21:55;19.40;66.40
46340;DHT22;47273;49.274;8.708;2022-07-10T09:24:25;19.50;67.20
46340;DHT22;47273;49.274;8.708;2022-07-10T09:29:22;19.90;67.30
46340;DHT22;47273;49.274;8.708;2022-07-10T09:34:15;20.30;65.80
46340;DHT22;47273;49.274;8.708;2022-07-10T09:36:41;20.20;64.70
46340;DHT22;47273;49.274;8.708;2022-07-10T09:39:07;20.10;66.10
46340;DHT22;47273;49.274;8.708;2022-07-10T09:41:32;20.10;65.40
46340;DHT22;47273;49.274;8.708;2022-07-10T09:44:05;20.00;62.90
46340;DHT22;47273;49.274;8.708;2022-07-10T09:46:38;20.20;65.90
46340;DHT22;47273;49.274;8.708;2022-07-10T09:51:39;20.60;65.20
46340;DHT22;47273;49.274;8.708;2022-07-10T09:54:07;20.70;65.30
46340;DHT22;47273;49.274;8.708;2022-07-10T09:56:47;20.90;65.00
46340;DHT22;47273;49.274;8.708;2022-07-10T09:59:16;21.00;63.80
46340;DHT22;47273;49.274;8.708;2022-07-10T10:01:49;21.10;62.60
46340;DHT22;47273;49.274;8.708;2022-07-10T10:04:19;21.30;63.50
46340;DHT22;47273;49.274;8.708;2022-07-10T10:06:51;21.40;62.30
46340;DHT22;47273;49.274;8.708;2022-07-10T10:09:22;21.60;60.20
46340;DHT22;47273;49.274;8.708;2022-07-10T10:11:54;21.80;58.80
46340;DHT22;47273;49.274;8.708;2022-07-10T10:14:23;21.80;60.60
46340;DHT22;47273;49.274;8.708;2022-07-10T10:16:49;22.00;60.60
46340;DHT22;47273;49.274;8.708;2022-07-10T10:19:18;22.00;60.20
46340;DHT22;47273;49.274;8.708;2022-07-10T10:22:04;22.00;61.40
46340;DHT22;47273;49.274;8.708;2022-07-10T10:24:32;22.00;61.40
46340;DHT22;47273;49.274;8.708;2022-07-10T10:26:58;22.10;60.70
46340;DHT22;47273;49.274;8.708;2022-07-10T10:29:24;22.20;61.20
46340;DHT22;47273;49.274;8.708;2022-07-10T10:31:51;22.50;58.60
46340;DHT22;47273;49.274;8.708;2022-07-10T10:34:41;22.80;58.20
46340;DHT22;47273;49.274;8.708;2022-07-10T10:39:56;22.70;57.00
46340;DHT22;47273;49.274;8.708;2022-07-10T10:42:41;22.90;59.00
46340;DHT22;47273;49.274;8.708;2022-07-10T10:45:33;23.10;59.40
46340;DHT22;47273;49.274;8.708;2022-07-10T10:48:01;23.10;58.20
46340;DHT22;47273;49.274;8.708;2022-07-10T10:50:55;23.20;59.00
46340;DHT22;47273;49.274;8.708;2022-07-10T10:53:26;23.50;57.80
46340;DHT22;47273;49.274;8.708;2022-07-10T10:58:40;23.00;57.90
46340;DHT22;47273;49.274;8.708;2022-07-10T11:01:24;23.10;58.00
46340;DHT22;47273;49.274;8.708;2022-07-10T11:06:42;22.90;55.60
46340;DHT22;47273;49.274;8.708;2022-07-10T11:12:06;23.30;58.10
46340;DHT22;47273;49.274;8.708;2022-07-10T11:14:34;24.20;57.10
46340;DHT22;47273;49.274;8.708;2022-07-10T11:17:02;24.20;55.60
46340;DHT22;47273;49.274;8.708;2022-07-10T11:19:29;23.60;55.90
46340;DHT22;47273;49.274;8.708;2022-07-10T11:22:27;23.40;56.00
46340;DHT22;47273;49.274;8.708;2022-07-10T11:30:19;25.00;51.10
46340;DHT22;47273;49.274;8.708;2022-07-10T11:32:45;25.10;50.30
46340;DHT22;47273;49.274;8.708;2022-07-10T11:35:14;25.30;52.30
46340;DHT22;47273;49.274;8.708;2022-07-10T11:37:50;25.50;52.10
46340;DHT22;47273;49.274;8.708;2022-07-10T11:40:17;25.50;51.80
46340;DHT22;47273;49.274;8.708;2022-07-10T11:43:03;25.60;51.60
46340;DHT22;47273;49.274;8.708;2022-07-10T11:45:33;25.60;52.50
46340;DHT22;47273;49.274;8.708;2022-07-10T11:48:04;26.10;52.40
46340;DHT22;47273;49.274;8.708;2022-07-10T11:50:37;26.50;51.20
46340;DHT22;47273;49.274;8.708;2022-07-10T11:53:04;26.70;51.50
46340;DHT22;47273;49.274;8.708;2022-07-10T11:55:30;26.70;50.50
46340;DHT22;47273;49.274;8.708;2022-07-10T11:57:57;26.80;50.00
46340;DHT22;47273;49.274;8.708;2022-07-10T12:00:29;27.00;49.90
46340;DHT22;47273;49.274;8.708;2022-07-10T12:02:57;27.20;49.30
46340;DHT22;47273;49.274;8.708;2022-07-10T12:05:40;27.80;49.70
46340;DHT22;47273;49.274;8.708;2022-07-10T12:08:06;28.70;48.10
46340;DHT22;47273;49.274;8.708;2022-07-10T12:10:33;27.90;48.40
46340;DHT22;47273;49.274;8.708;2022-07-10T12:13:10;27.60;47.70
46340;DHT22;47273;49.274;8.708;2022-07-10T12:15:38;27.30;47.90
46340;DHT22;47273;49.274;8.708;2022-07-10T12:18:09;27.20;49.00
46340;DHT22;47273;49.274;8.708;2022-07-10T12:20:40;27.30;49.50
46340;DHT22;47273;49.274;8.708;2022-07-10T12:23:11;27.50;48.80
46340;DHT22;47273;49.274;8.708;2022-07-10T12:25:47;28.30;46.40
46340;DHT22;47273;49.274;8.708;2022-07-10T12:28:14;27.60;47.90
46340;DHT22;47273;49.274;8.708;2022-07-10T12:30:43;27.10;48.00
46340;DHT22;47273;49.274;8.708;2022-07-10T12:33:18;26.90;48.90
46340;DHT22;47273;49.274;8.708;2022-07-10T12:35:54;27.00;49.60
46340;DHT22;47273;49.274;8.708;2022-07-10T12:38:26;26.80;49.80
46340;DHT22;47273;49.274;8.708;2022-07-10T12:41:10;26.80;47.20
46340;DHT22;47273;49.274;8.708;2022-07-10T12:43:36;27.50;48.50
46340;DHT22;47273;49.274;8.708;2022-07-10T12:46:14;26.70;48.20
46340;DHT22;47273;49.274;8.708;2022-07-10T12:51:29;26.10;47.70
46340;DHT22;47273;49.274;8.708;2022-07-10T12:53:58;26.10;48.90
46340;DHT22;47273;49.274;8.708;2022-07-10T12:56:36;26.50;47.70
46340;DHT22;47273;49.274;8.708;2022-07-10T12:59:15;26.90;48.70
46340;DHT22;47273;49.274;8.708;2022-07-10T13:01:44;26.70;48.80
46340;DHT22;47273;49.274;8.708;2022-07-10T13:04:22;26.30;49.30
46340;DHT22;47273;49.274;8.708;2022-07-10T13:07:12;25.80;50.30
46340;DHT22;47273;49.274;8.708;2022-07-10T13:09:39;25.50;50.40
46340;DHT22;47273;49.274;8.708;2022-07-10T13:12:18;25.80;51.50
46340;DHT22;47273;49.274;8.708;2022-07-10T13:14:44;26.30;50.80
46340;DHT22;47273;49.274;8.708;2022-07-10T13:17:10;26.10;50.20
46340;DHT22;47273;49.274;8.708;2022-07-10T13:19:36;26.50;49.40
46340;DHT22;47273;49.274;8.708;2022-07-10T13:22:01;26.90;49.20
46340;DHT22;47273;49.274;8.708;2022-07-10T13:24:27;27.10;49.40
46340;DHT22;47273;49.274;8.708;2022-07-10T13:26:56;26.90;49.00
46340;DHT22;47273;49.274;8.708;2022-07-10T13:29:22;26.30;48.30
46340;DHT22;47273;49.274;8.708;2022-07-10T13:31:48;26.20;50.10
46340;DHT22;47273;49.274;8.708;2022-07-10T13:34:13;26.40;50.10
46340;DHT22;47273;49.274;8.708;2022-07-10T13:36:42;26.50;50.00
46340;DHT22;47273;49.274;8.708;2022-07-10T13:39:08;26.20;50.20
46340;DHT22;47273;49.274;8.708;2022-07-10T13:41:34;26.00;50.30
46340;DHT22;47273;49.274;8.708;2022-07-10T13:44:03;25.90;50.40
46340;DHT22;47273;49.274;8.708;2022-07-10T13:46:34;25.90;49.40
46340;DHT22;47273;49.274;8.708;2022-07-10T13:49:00;25.60;49.80
46340;DHT22;47273;49.274;8.708;2022-07-10T13:51:26;25.20;50.20
46340;DHT22;47273;49.274;8.708;2022-07-10T13:53:51;25.30;52.50
46340;DHT22;47273;49.274;8.708;2022-07-10T13:56:19;25.60;51.70
46340;DHT22;47273;49.274;8.708;2022-07-10T13:58:47;25.20;50.40
46340;DHT22;47273;49.274;8.708;2022-07-10T14:01:22;25.00;50.40
46340;DHT22;47273;49.274;8.708;2022-07-10T14:03:48;25.10;50.50
46340;DHT22;47273;49.274;8.708;2022-07-10T14:06:17;25.50;50.30
46340;DHT22;47273;49.274;8.708;2022-07-10T14:08:42;26.40;50.50
46340;DHT22;47273;49.274;8.708;2022-07-10T14:11:08;26.70;48.00
46340;DHT22;47273;49.274;8.708;2022-07-10T14:13:37;26.60;48.70
46340;DHT22;47273;49.274;8.708;2022-07-10T14:16:03;26.30;49.90
46340;DHT22;47273;49.274;8.708;2022-07-10T14:18:28;25.90;50.50
46340;DHT22;47273;49.274;8.708;2022-07-10T14:21:06;25.50;51.00
46340;DHT22;47273;49.274;8.708;2022-07-10T14:23:35;25.20;52.40
46340;DHT22;47273;49.274;8.708;2022-07-10T14:26:05;25.00;52.20
46340;DHT22;47273;49.274;8.708;2022-07-10T14:28:31;24.90;50.40
46340;DHT22;47273;49.274;8.708;2022-07-10T14:30:58;24.60;52.20
46340;DHT22;47273;49.274;8.708;2022-07-10T14:33:26;24.40;51.40
46340;DHT22;47273;49.274;8.708;2022-07-10T14:35:54;24.40;51.50
46340;DHT22;47273;49.274;8.708;2022-07-10T14:38:19;24.40;53.10
46340;DHT22;47273;49.274;8.708;2022-07-10T14:40:45;24.30;53.00
46340;DHT22;47273;49.274;8.708;2022-07-10T14:43:11;24.30;52.80
46340;DHT22;47273;49.274;8.708;2022-07-10T14:45:36;24.60;51.60
46340;DHT22;47273;49.274;8.708;2022-07-10T14:48:02;25.00;51.90
46340;DHT22;47273;49.274;8.708;2022-07-10T14:50:28;25.40;52.10
46340;DHT22;47273;49.274;8.708;2022-07-10T14:52:54;25.70;51.70
46340;DHT22;47273;49.274;8.708;2022-07-10T14:55:20;25.90;51.20
46340;DHT22;47273;49.274;8.708;2022-07-10T14:57:45;25.70;50.20
46340;DHT22;47273;49.274;8.708;2022-07-10T15:00:13;25.40;50.70
46340;DHT22;47273;49.274;8.708;2022-07-10T15:02:39;25.10;51.20
46340;DHT22;47273;49.274;8.708;2022-07-10T15:05:08;25.00;51.40
46340;DHT22;47273;49.274;8.708;2022-07-10T15:07:43;24.80;52.30
46340;DHT22;47273;49.274;8.708;2022-07-10T15:10:11;24.50;53.30
46340;DHT22;47273;49.274;8.708;2022-07-10T15:12:38;24.40;53.70
46340;DHT22;47273;49.274;8.708;2022-07-10T15:18:36;23.90;54.40
46340;DHT22;47273;49.274;8.708;2022-07-10T15:21:15;23.80;54.70
46340;DHT22;47273;49.274;8.708;2022-07-10T15:23:43;23.60;54.80
46340;DHT22;47273;49.274;8.708;2022-07-10T15:26:12;23.50;54.20
46340;DHT22;47273;49.274;8.708;2022-07-10T15:28:39;23.40;54.90
46340;DHT22;47273;49.274;8.708;2022-07-10T15:31:31;23.30;54.30
46340;DHT22;47273;49.274;8.708;2022-07-10T15:35:08;23.30;54.90
46340;DHT22;47273;49.274;8.708;2022-07-10T15:38:00;23.20;54.80
46340;DHT22;47273;49.274;8.708;2022-07-10T15:41:03;23.20;55.70
46340;DHT22;47273;49.274;8.708;2022-07-10T15:47:36;23.10;55.60
46340;DHT22;47273;49.274;8.708;2022-07-10T15:50:04;23.10;56.50
46340;DHT22;47273;49.274;8.708;2022-07-10T15:56:38;23.00;55.90
46340;DHT22;47273;49.274;8.708;2022-07-10T15:59:05;22.80;56.30
46340;DHT22;47273;49.274;8.708;2022-07-10T16:01:31;22.80;56.60
46340;DHT22;47273;49.274;8.708;2022-07-10T16:15:38;22.70;58.20
46340;DHT22;47273;49.274;8.708;2022-07-10T16:18:05;22.60;57.30
46340;DHT22;47273;49.274;8.708;2022-07-10T16:20:34;23.00;57.40
46340;DHT22;47273;49.274;8.708;2022-07-10T16:23:19;23.30;56.80
46340;DHT22;47273;49.274;8.708;2022-07-10T16:25:47;23.50;56.80
46340;DHT22;47273;49.274;8.708;2022-07-10T16:28:54;23.50;56.90
46340;DHT22;47273;49.274;8.708;2022-07-10T16:35:21;23.20;55.80
46340;DHT22;47273;49.274;8.708;2022-07-10T16:37:52;23.00;56.10
46340;DHT22;47273;49.274;8.708;2022-07-10T16:40:18;22.90;57.60
46340;DHT22;47273;49.274;8.708;2022-07-10T16:42:44;22.80;57.60
46340;DHT22;47273;49.274;8.708;2022-07-10T16:45:09;22.60;57.50
46340;DHT22;47273;49.274;8.708;2022-07-10T16:47:36;22.60;57.90
46340;DHT22;47273;49.274;8.708;2022-07-10T16:50:02;22.60;57.30
46340;DHT22;47273;49.274;8.708;2022-07-10T16:52:28;22.50;57.90
46340;DHT22;47273;49.274;8.708;2022-07-10T16:54:54;22.50;58.00
46340;DHT22;47273;49.274;8.708;2022-07-10T16:57:20;22.60;57.60
46340;DHT22;47273;49.274;8.708;2022-07-10T16:59:45;22.60;57.30
46340;DHT22;47273;49.274;8.708;2022-07-10T17:02:12;22.50;56.30
46340;DHT22;47273;49.274;8.708;2022-07-10T17:04:38;22.40;56.50
46340;DHT22;47273;49.274;8.708;2022-07-10T17:07:06;22.40;57.50
46340;DHT22;47273;49.274;8.708;2022-07-10T17:09:32;22.40;57.50
46340;DHT22;47273;49.274;8.708;2022-07-10T17:11:58;22.40;57.80
46340;DHT22;47273;49.274;8.708;2022-07-10T17:14:24;22.30;58.00
46340;DHT22;47273;49.274;8.708;2022-07-10T17:16:53;22.20;58.70
46340;DHT22;47273;49.274;8.708;2022-07-10T17:19:18;22.10;58.70
46340;DHT22;47273;49.274;8.708;2022-07-10T17:21:44;22.00;58.60
46340;DHT22;47273;49.274;8.708;2022-07-10T17:24:16;22.00;58.90
46340;DHT22;47273;49.274;8.708;2022-07-10T17:26:42;21.90;59.00
46340;DHT22;47273;49.274;8.708;2022-07-10T17:29:08;21.90;59.70
46340;DHT22;47273;49.274;8.708;2022-07-10T17:31:33;21.80;59.60
46340;DHT22;47273;49.274;8.708;2022-07-10T17:33:59;21.90;59.60
46340;DHT22;47273;49.274;8.708;2022-07-10T17:36:27;21.80;59.50
46340;DHT22;47273;49.274;8.708;2022-07-10T17:38:56;21.90;59.70
46340;DHT22;47273;49.274;8.708;2022-07-10T17:41:22;21.80;59.80
46340;DHT22;47273;49.274;8.708;2022-07-10T17:43:48;21.70;59.50
46340;DHT22;47273;49.274;8.708;2022-07-10T17:46:14;21.70;59.60
46340;DHT22;47273;49.274;8.708;2022-07-10T17:48:40;21.70;60.10
46340;DHT22;47273;49.274;8.708;2022-07-10T17:51:08;21.60;59.80
46340;DHT22;47273;49.274;8.708;2022-07-10T17:53:34;21.60;60.60
46340;DHT22;47273;49.274;8.708;2022-07-10T17:56:00;21.60;60.60
46340;DHT22;47273;49.274;8.708;2022-07-10T17:58:26;21.50;61.30
46340;DHT22;47273;49.274;8.708;2022-07-10T18:00:55;21.50;61.10
46340;DHT22;47273;49.274;8.708;2022-07-10T18:03:20;21.40;61.20
46340;DHT22;47273;49.274;8.708;2022-07-10T18:05:50;21.40;62.00
46340;DHT22;47273;49.274;8.708;2022-07-10T18:08:15;21.30;61.50
46340;DHT22;47273;49.274;8.708;2022-07-10T18:10:41;21.20;61.60
46340;DHT22;47273;49.274;8.708;2022-07-10T18:13:10;21.10;61.90
46340;DHT22;47273;49.274;8.708;2022-07-10T18:15:35;21.10;62.00
46340;DHT22;47273;49.274;8.708;2022-07-10T18:18:02;21.10;62.20
46340;DHT22;47273;49.274;8.708;2022-07-10T18:20:40;21.10;63.10
46340;DHT22;47273;49.274;8.708;2022-07-10T18:23:06;21.00;62.70
46340;DHT22;47273;49.274;8.708;2022-07-10T18:25:33;21.00;62.60
46340;DHT22;47273;49.274;8.708;2022-07-10T18:27:59;21.00;62.50
46340;DHT22;47273;49.274;8.708;2022-07-10T18:30:28;21.00;62.60
46340;DHT22;47273;49.274;8.708;2022-07-10T18:32:54;20.90;63.00
46340;DHT22;47273;49.274;8.708;2022-07-10T18:35:38;20.90;63.00
46340;DHT22;47273;49.274;8.708;2022-07-10T18:38:06;20.80;64.00
46340;DHT22;47273;49.274;8.708;2022-07-10T18:40:32;20.80;63.50
46340;DHT22;47273;49.274;8.708;2022-07-10T18:42:57;20.80;63.70
46340;DHT22;47273;49.274;8.708;2022-07-10T18:45:32;20.70;63.30
46340;DHT22;47273;49.274;8.708;2022-07-10T18:48:00;20.70;64.10
46340;DHT22;47273;49.274;8.708;2022-07-10T18:50:26;20.70;64.20
46340;DHT22;47273;49.274;8.708;2022-07-10T18:52:52;20.70;63.80
46340;DHT22;47273;49.274;8.708;2022-07-10T18:55:17;20.70;64.00
46340;DHT22;47273;49.274;8.708;2022-07-10T18:57:43;20.70;64.20
46340;DHT22;47273;49.274;8.708;2022-07-10T19:00:18;20.60;64.20
46340;DHT22;47273;49.274;8.708;2022-07-10T19:02:52;20.60;64.10
46340;DHT22;47273;49.274;8.708;2022-07-10T19:05:18;20.60;64.90
46340;DHT22;47273;49.274;8.708;2022-07-10T19:07:47;20.60;65.00
46340;DHT22;47273;49.274;8.708;2022-07-10T19:10:12;20.50;64.50
46340;DHT22;47273;49.274;8.708;2022-07-10T19:12:38;20.50;64.90
46340;DHT22;47273;49.274;8.708;2022-07-10T19:15:04;20.50;64.80
46340;DHT22;47273;49.274;8.708;2022-07-10T19:17:30;20.40;65.80
46340;DHT22;47273;49.274;8.708;2022-07-10T19:19:57;20.50;65.10
46340;DHT22;47273;49.274;8.708;2022-07-10T19:22:22;20.50;65.40
46340;DHT22;47273;49.274;8.708;2022-07-10T19:24:48;20.50;65.80
46340;DHT22;47273;49.274;8.708;2022-07-10T19:27:14;20.40;65.70
46340;DHT22;47273;49.274;8.708;2022-07-10T19:29:39;20.40;65.80
46340;DHT22;47273;49.274;8.708;2022-07-10T19:32:05;20.30;66.10
46340;DHT22;47273;49.274;8.708;2022-07-10T19:34:32;20.40;66.00
46340;DHT22;47273;49.274;8.708;2022-07-10T19:36:57;20.40;66.00
46340;DHT22;47273;49.274;8.708;2022-07-10T19:39:23;20.20;66.90
46340;DHT22;47273;49.274;8.708;2022-07-10T19:41:49;20.20;66.50
46340;DHT22;47273;49.274;8.708;2022-07-10T19:44:14;20.20;66.30
46340;DHT22;47273;49.274;8.708;2022-07-10T19:46:41;20.20;66.50
46340;DHT22;47273;49.274;8.708;2022-07-10T19:49:06;20.20;67.00
46340;DHT22;47273;49.274;8.708;2022-07-10T19:51:32;20.20;66.60
46340;DHT22;47273;49.274;8.708;2022-07-10T19:53:58;20.10;66.90
46340;DHT22;47273;49.274;8.708;2022-07-10T19:56:23;20.10;67.30
46340;DHT22;47273;49.274;8.708;2022-07-10T19:58:49;20.10;66.80
46340;DHT22;47273;49.274;8.708;2022-07-10T20:01:15;20.10;67.30
46340;DHT22;47273;49.274;8.708;2022-07-10T20:03:41;20.10;67.50
46340;DHT22;47273;49.274;8.708;2022-07-10T20:06:06;20.10;67.70
46340;DHT22;47273;49.274;8.708;2022-07-10T20:08:34;20.10;68.40
46340;DHT22;47273;49.274;8.708;2022-07-10T20:11:00;20.00;68.60
46340;DHT22;47273;49.274;8.708;2022-07-10T20:13:25;20.00;68.70
46340;DHT22;47273;49.274;8.708;2022-07-10T20:15:51;19.90;68.80
46340;DHT22;47273;49.274;8.708;2022-07-10T20:18:19;20.00;69.10
46340;DHT22;47273;49.274;8.708;2022-07-10T20:20:45;19.90;69.40
46340;DHT22;47273;49.274;8.708;2022-07-10T20:23:11;19.90;69.40
46340;DHT22;47273;49.274;8.708;2022-07-10T20:25:37;19.90;69.60
46340;DHT22;47273;49.274;8.708;2022-07-10T20:28:02;19.90;69.70
46340;DHT22;47273;49.274;8.708;2022-07-10T20:30:28;19.80;69.30
46340;DHT22;47273;49.274;8.708;2022-07-10T20:32:54;19.80;69.70
46340;DHT22;47273;49.274;8.708;2022-07-10T20:35:19;19.80;69.50